createdAt,value
2022-10-17T00:00:01.244Z,32
2022-10-17T00:02:32.012Z,35
2022-10-17T00:05:02.865Z,33
2022-10-17T00:07:34.134Z,33
2022-10-17T00:10:05.012Z,28
2022-10-17T00:12:36.219Z,38
2022-10-17T00:15:07.280Z,32
2022-10-17T00:17:38.628Z,31
2022-10-17T00:20:10.322Z,33
2022-10-17T00:22:41.189Z,31
2022-10-17T00:25:13.417Z,29
2022-10-17T00:27:44.402Z,32
2022-10-17T00:30:16.763Z,29
2022-10-17T00:32:47.456Z,27
2022-10-17T00:35:16.808Z,35
2022-10-17T00:37:48.029Z,36
2022-10-17T00:40:18.779Z,37
2022-10-17T00:42:49.962Z,32
2022-10-17T00:45:24.509Z,30
2022-10-17T00:47:55.650Z,35
2022-10-17T00:50:26.712Z,31
2022-10-17T00:52:58.076Z,33
2022-10-17T00:55:29.229Z,35
2022-10-17T00:58:02.560Z,36
2022-10-17T01:00:33.349Z,37
2022-10-17T01:03:04.948Z,41
2022-10-17T01:05:37.278Z,45
2022-10-17T01:08:08.182Z,39
2022-10-17T01:10:39.340Z,36
2022-10-17T01:13:10.264Z,34
2022-10-17T01:15:41.219Z,37
2022-10-17T01:18:14.424Z,32
2022-10-17T01:20:47.863Z,28
2022-10-17T01:23:22.236Z,31
2022-10-17T01:25:53.421Z,29
2022-10-17T01:28:24.583Z,29
2022-10-17T01:30:55.708Z,29
2022-10-17T01:33:27.421Z,31
2022-10-17T01:36:01.775Z,32
2022-10-17T01:38:31.100Z,28
2022-10-17T01:41:01.642Z,27
2022-10-17T01:43:33.148Z,32
2022-10-17T01:46:03.959Z,28
2022-10-17T01:48:34.388Z,28
2022-10-17T01:51:03.690Z,28
2022-10-17T01:53:35.244Z,36
2022-10-17T01:56:05.103Z,32
2022-10-17T01:58:34.442Z,37
2022-10-17T02:01:05.241Z,40
2022-10-17T02:03:36.349Z,32
2022-10-17T02:06:07.660Z,30
2022-10-17T02:08:37.025Z,27
2022-10-17T02:11:07.795Z,33
2022-10-17T02:13:39.081Z,29
2022-10-17T02:16:09.642Z,24
2022-10-17T02:18:40.712Z,29
2022-10-17T02:21:13.292Z,32
2022-10-17T02:23:44.665Z,29
2022-10-17T02:26:16.147Z,27
2022-10-17T02:28:47.430Z,29
2022-10-17T02:31:18.318Z,28
2022-10-17T02:33:48.661Z,31
2022-10-17T02:36:19.653Z,36
2022-10-17T02:38:51.055Z,39
2022-10-17T02:41:20.436Z,26
2022-10-17T02:43:51.716Z,29
2022-10-17T02:46:21.362Z,28
2022-10-17T02:48:54.258Z,34
2022-10-17T02:51:25.662Z,32
2022-10-17T02:53:57.147Z,28
2022-10-17T02:56:28.208Z,29
2022-10-17T02:58:59.389Z,25
2022-10-17T03:01:30.392Z,27
2022-10-17T03:04:01.627Z,27
2022-10-17T03:06:32.189Z,33
2022-10-17T03:09:02.801Z,29
2022-10-17T03:11:33.873Z,24
2022-10-17T03:14:04.927Z,28
2022-10-17T03:16:36.048Z,29
2022-10-17T03:19:06.944Z,32
2022-10-17T03:21:38.997Z,28
2022-10-17T03:24:09.549Z,28
2022-10-17T03:26:39.955Z,28
2022-10-17T03:29:12.435Z,31
2022-10-17T03:31:46.142Z,31
2022-10-17T03:34:16.862Z,30
2022-10-17T03:36:55.967Z,27
2022-10-17T03:39:29.304Z,27
2022-10-17T03:42:01.210Z,27
2022-10-17T03:44:35.521Z,35
2022-10-17T03:47:10.445Z,36
2022-10-17T03:49:41.538Z,27
2022-10-17T03:52:13.045Z,31
2022-10-17T03:54:44.607Z,30
2022-10-17T03:57:15.500Z,28
2022-10-17T03:59:46.763Z,30
2022-10-17T04:02:17.623Z,32
2022-10-17T04:04:48.970Z,32
2022-10-17T04:07:19.766Z,29
2022-10-17T04:09:51.012Z,35
2022-10-17T04:12:20.319Z,35
2022-10-17T04:14:49.616Z,30
2022-10-17T04:17:18.868Z,36
2022-10-17T04:19:49.735Z,32
2022-10-17T04:22:21.059Z,31
2022-10-17T04:24:51.790Z,29
2022-10-17T04:27:22.873Z,32
2022-10-17T04:29:53.638Z,34
2022-10-17T04:32:24.499Z,28
2022-10-17T04:34:55.161Z,32
2022-10-17T04:37:26.340Z,36
2022-10-17T04:39:58.219Z,30
2022-10-17T04:42:30.129Z,30
2022-10-17T04:45:01.802Z,39
2022-10-17T04:47:33.217Z,28
2022-10-17T04:50:05.400Z,28
2022-10-17T04:52:37.767Z,31
2022-10-17T04:55:08.594Z,35
2022-10-17T04:57:42.001Z,32
2022-10-17T05:00:15.006Z,28
2022-10-17T05:02:45.955Z,31
2022-10-17T05:05:17.215Z,31
2022-10-17T05:07:50.338Z,33
2022-10-17T05:10:22.472Z,30
2022-10-17T05:12:56.543Z,28
2022-10-17T05:15:27.563Z,33
2022-10-17T05:17:58.472Z,35
2022-10-17T05:20:28.674Z,34
2022-10-17T05:22:58.409Z,40
2022-10-17T05:25:29.220Z,33
2022-10-17T05:28:01.033Z,34
2022-10-17T05:30:33.776Z,40
2022-10-17T05:33:02.631Z,36
2022-10-17T05:35:34.145Z,39
2022-10-17T05:38:05.010Z,38
2022-10-17T05:40:36.787Z,43
2022-10-17T05:43:08.479Z,37
2022-10-17T05:45:39.241Z,41
2022-10-17T05:48:09.775Z,35
2022-10-17T05:50:40.659Z,40
2022-10-17T05:53:09.674Z,39
2022-10-17T05:55:40.834Z,36
2022-10-17T05:58:14.284Z,32
2022-10-17T06:00:42.249Z,44
2022-10-17T06:03:13.318Z,33
2022-10-17T06:05:45.587Z,36
2022-10-17T06:08:16.572Z,34
2022-10-17T06:10:47.397Z,39
2022-10-17T06:13:18.340Z,35
2022-10-17T06:15:49.136Z,33
2022-10-17T06:18:19.533Z,35
2022-10-17T06:20:50.382Z,32
2022-10-17T06:23:21.205Z,36
2022-10-17T06:25:51.996Z,36
2022-10-17T06:28:24.375Z,41
2022-10-17T06:30:55.186Z,32
2022-10-17T06:33:28.254Z,40
2022-10-17T06:35:59.391Z,38
2022-10-17T06:38:30.522Z,33
2022-10-17T06:41:01.241Z,35
2022-10-17T06:43:33.711Z,39
2022-10-17T06:46:04.405Z,35
2022-10-17T06:48:35.319Z,32
2022-10-17T06:51:06.400Z,31
2022-10-17T06:53:37.866Z,31
2022-10-17T06:56:08.787Z,32
2022-10-17T06:58:39.042Z,28
2022-10-17T07:01:11.105Z,33
2022-10-17T07:03:42.003Z,32
2022-10-17T07:06:13.372Z,35
2022-10-17T07:08:44.224Z,29
2022-10-17T07:11:14.955Z,35
2022-10-17T07:13:47.576Z,28
2022-10-17T07:16:19.358Z,27
2022-10-17T07:18:50.274Z,30
2022-10-17T07:21:26.058Z,32
2022-10-17T07:23:58.762Z,31
2022-10-17T07:26:29.397Z,36
2022-10-17T07:29:00.661Z,32
2022-10-17T07:31:31.401Z,31
2022-10-17T07:34:02.562Z,32
2022-10-17T07:36:33.453Z,32
2022-10-17T07:39:04.169Z,29
2022-10-17T07:41:35.284Z,39
2022-10-17T07:44:06.695Z,32
2022-10-17T07:46:37.326Z,35
2022-10-17T07:49:08.467Z,28
2022-10-17T07:51:39.421Z,31
2022-10-17T07:54:10.072Z,29
2022-10-17T07:56:39.193Z,33
2022-10-17T07:59:11.011Z,25
2022-10-17T08:01:42.078Z,28
2022-10-17T08:04:13.672Z,29
2022-10-17T08:06:44.193Z,24
2022-10-17T08:09:15.569Z,38
2022-10-17T08:11:46.937Z,28
2022-10-17T08:14:17.592Z,31
2022-10-17T08:16:46.792Z,25
2022-10-17T08:19:17.701Z,32
2022-10-17T08:21:54.081Z,24
2022-10-17T08:24:25.264Z,23
2022-10-17T08:26:57.180Z,22
2022-10-17T08:29:28.522Z,24
2022-10-17T08:32:01.022Z,31
2022-10-17T08:34:28.662Z,20
2022-10-17T08:36:59.589Z,25
2022-10-17T08:39:29.848Z,24
2022-10-17T08:42:00.286Z,25
2022-10-17T08:44:31.065Z,28
2022-10-17T08:47:01.971Z,24
2022-10-17T08:49:32.915Z,21
2022-10-17T08:52:04.111Z,23
2022-10-17T08:54:35.214Z,25
2022-10-17T08:57:06.602Z,25
2022-10-17T08:59:37.601Z,29
2022-10-17T09:02:08.643Z,27
2022-10-17T09:04:39.453Z,24
2022-10-17T09:07:10.067Z,21
2022-10-17T09:09:40.637Z,25
2022-10-17T09:12:11.308Z,23
2022-10-17T09:14:43.271Z,24
2022-10-17T09:17:14.095Z,27
2022-10-17T09:19:44.733Z,24
2022-10-17T09:22:15.180Z,28
2022-10-17T09:24:46.305Z,27
2022-10-17T09:27:17.755Z,24
2022-10-17T09:29:48.240Z,24
2022-10-17T09:32:19.292Z,21
2022-10-17T09:34:49.815Z,19
2022-10-17T09:37:20.236Z,17
2022-10-17T09:39:51.240Z,21
2022-10-17T09:42:21.705Z,17
2022-10-17T09:44:52.503Z,24
2022-10-17T09:47:24.200Z,20
2022-10-17T09:49:54.820Z,22
2022-10-17T09:52:25.455Z,25
2022-10-17T09:54:56.047Z,21
2022-10-17T09:57:26.475Z,23
2022-10-17T09:59:57.019Z,20
2022-10-17T10:02:27.905Z,23
2022-10-17T10:05:07.033Z,25
2022-10-17T10:07:29.892Z,21
2022-10-17T10:10:00.627Z,29
2022-10-17T10:12:31.923Z,23
2022-10-17T10:15:02.727Z,23
2022-10-17T10:17:33.115Z,23
2022-10-17T10:20:05.435Z,22
2022-10-17T10:22:36.777Z,24
2022-10-17T10:25:07.725Z,25
2022-10-17T10:27:38.695Z,19
2022-10-17T10:30:09.126Z,23
2022-10-17T10:32:40.000Z,24
2022-10-17T10:35:10.154Z,28
2022-10-17T10:37:40.353Z,27
2022-10-17T10:40:10.883Z,25
2022-10-17T10:42:42.084Z,28
2022-10-17T10:45:19.034Z,27
2022-10-17T10:47:43.330Z,22
2022-10-17T10:50:14.151Z,24
2022-10-17T10:52:44.813Z,37
2022-10-17T10:55:15.505Z,24
2022-10-17T10:57:46.393Z,24
2022-10-17T11:00:17.160Z,25
2022-10-17T11:02:48.153Z,21
2022-10-17T11:05:20.177Z,24
2022-10-17T11:07:51.221Z,25
2022-10-17T11:10:21.858Z,19
2022-10-17T11:12:52.803Z,24
2022-10-17T11:15:23.167Z,24
2022-10-17T11:17:54.863Z,22
2022-10-17T11:20:23.692Z,26
2022-10-17T11:22:55.679Z,21
2022-10-17T11:25:26.546Z,23
2022-10-17T11:27:59.788Z,23
2022-10-17T11:30:28.073Z,22
2022-10-17T11:32:59.174Z,21
2022-10-17T11:35:29.508Z,21
2022-10-17T11:38:00.022Z,20
2022-10-17T11:40:31.000Z,17
2022-10-17T11:43:01.351Z,24
2022-10-17T11:45:31.978Z,17
2022-10-17T11:48:02.801Z,19
2022-10-17T11:53:05.069Z,27
2022-10-17T11:55:36.150Z,20
2022-10-17T11:58:06.707Z,21
2022-10-17T12:00:38.023Z,20
2022-10-17T12:03:07.750Z,21
2022-10-17T12:05:38.459Z,20
2022-10-17T12:08:10.435Z,20
2022-10-17T12:10:41.051Z,21
2022-10-17T12:13:11.872Z,20
2022-10-17T12:15:46.512Z,27
2022-10-17T12:18:16.529Z,27
2022-10-17T12:20:47.113Z,20
2022-10-17T12:23:18.107Z,21
2022-10-17T12:25:48.780Z,19
2022-10-17T12:28:19.693Z,17
2022-10-17T12:30:49.646Z,21
2022-10-17T12:33:20.184Z,20
2022-10-17T12:35:53.485Z,22
2022-10-17T12:38:25.448Z,26
2022-10-17T12:40:56.223Z,23
2022-10-17T12:43:26.874Z,23
2022-10-17T12:45:57.379Z,19
2022-10-17T12:48:28.396Z,19
2022-10-17T12:51:12.258Z,21
2022-10-17T12:53:28.697Z,24
2022-10-17T12:55:59.769Z,21
2022-10-17T12:58:30.131Z,19
2022-10-17T13:03:32.267Z,18
2022-10-17T13:06:04.121Z,22
2022-10-17T13:08:34.885Z,17
2022-10-17T13:11:07.088Z,18
2022-10-17T13:13:36.837Z,20
2022-10-17T13:16:08.044Z,19
2022-10-17T13:18:38.542Z,20
2022-10-17T13:21:09.056Z,21
2022-10-17T13:23:39.772Z,23
2022-10-17T13:26:10.889Z,19
2022-10-17T13:28:40.028Z,19
2022-10-17T13:31:10.454Z,19
2022-10-17T13:33:41.150Z,17
2022-10-17T13:36:11.818Z,24
2022-10-17T13:38:43.128Z,20
2022-10-17T13:41:34.612Z,17
2022-10-17T13:43:46.226Z,19
2022-10-17T13:46:35.934Z,21
2022-10-17T13:48:48.292Z,20
2022-10-17T13:51:18.760Z,23
2022-10-17T13:53:49.503Z,26
2022-10-17T13:56:28.168Z,20
2022-10-17T13:58:51.916Z,18
2022-10-17T14:01:22.791Z,23
2022-10-17T14:04:02.431Z,23
2022-10-17T14:06:24.752Z,16
2022-10-17T14:08:55.337Z,19
2022-10-17T14:11:26.423Z,24
2022-10-17T14:13:57.401Z,16
2022-10-17T14:16:28.579Z,20
2022-10-17T14:18:59.495Z,24
2022-10-17T14:21:43.155Z,19
2022-10-17T14:24:01.344Z,17
2022-10-17T14:26:33.762Z,21
2022-10-17T14:29:05.246Z,24
2022-10-17T14:31:36.983Z,24
2022-10-17T14:34:08.305Z,23
2022-10-17T14:36:39.474Z,20
2022-10-17T14:39:14.241Z,21
2022-10-17T14:41:43.685Z,20
2022-10-17T14:44:15.157Z,25
2022-10-17T14:46:50.399Z,20
2022-10-17T14:49:24.161Z,20
2022-10-17T14:51:56.871Z,24
2022-10-17T14:54:24.345Z,20
2022-10-17T14:56:55.447Z,23
2022-10-17T14:59:52.574Z,20
2022-10-17T15:01:58.968Z,22
2022-10-17T15:04:29.834Z,20
2022-10-17T15:07:01.423Z,26
2022-10-17T15:09:32.316Z,20
2022-10-17T15:12:05.514Z,23
2022-10-17T15:14:36.885Z,25
2022-10-17T15:17:08.306Z,19
2022-10-17T15:19:39.713Z,23
2022-10-17T15:22:10.696Z,21
2022-10-17T15:24:41.929Z,25
2022-10-17T15:27:13.496Z,24
2022-10-17T15:29:44.440Z,27
2022-10-17T15:32:15.643Z,20
2022-10-17T15:34:47.962Z,24
2022-10-17T15:37:19.363Z,24
2022-10-17T15:39:49.815Z,29
2022-10-17T15:42:21.346Z,27
2022-10-17T15:44:52.921Z,26
2022-10-17T15:47:24.100Z,35
2022-10-17T15:49:54.951Z,28
2022-10-17T15:52:26.160Z,31
2022-10-17T15:54:57.354Z,34
2022-10-17T15:57:28.975Z,33
2022-10-17T16:00:00.305Z,28
2022-10-17T16:02:32.246Z,26
2022-10-17T16:05:02.767Z,33
2022-10-17T16:07:33.962Z,28
2022-10-17T16:10:05.304Z,32
2022-10-17T16:12:37.527Z,32
2022-10-17T16:15:09.040Z,32
2022-10-17T16:17:40.636Z,34
2022-10-17T16:20:12.131Z,29
2022-10-17T16:22:43.514Z,34
2022-10-17T16:25:15.069Z,35
2022-10-17T16:27:46.495Z,33
2022-10-17T16:30:18.498Z,34
2022-10-17T16:32:47.822Z,30
2022-10-17T16:35:19.427Z,32
2022-10-17T16:37:52.263Z,26
2022-10-17T16:40:23.904Z,36
2022-10-17T16:42:55.536Z,32
2022-10-17T16:45:29.226Z,34
2022-10-17T16:48:00.332Z,38
2022-10-17T16:50:34.381Z,36
2022-10-17T16:53:06.318Z,33
2022-10-17T16:55:38.080Z,41
2022-10-17T16:58:09.517Z,32
2022-10-17T17:00:40.973Z,39
2022-10-17T17:03:12.334Z,40
2022-10-17T17:05:43.803Z,37
2022-10-17T17:08:15.295Z,39
2022-10-17T17:10:46.910Z,37
2022-10-17T17:13:18.705Z,37
2022-10-17T17:15:50.374Z,44
2022-10-17T17:18:23.686Z,36
2022-10-17T17:20:55.006Z,40
2022-10-17T17:23:27.020Z,40
2022-10-17T17:25:59.496Z,49
2022-10-17T17:28:30.790Z,48
2022-10-17T17:31:01.684Z,45
2022-10-17T17:33:33.055Z,54
2022-10-17T17:36:04.162Z,40
2022-10-17T17:38:35.460Z,46
2022-10-17T17:41:11.220Z,42
2022-10-17T17:43:46.511Z,40
2022-10-17T17:46:19.967Z,54
2022-10-17T17:48:51.519Z,50
2022-10-17T17:51:25.601Z,49
2022-10-17T17:53:53.848Z,53
2022-10-17T17:56:24.797Z,59
2022-10-17T17:58:56.235Z,52
2022-10-17T18:01:27.299Z,60
2022-10-17T18:04:00.648Z,55
2022-10-17T18:06:33.435Z,52
2022-10-17T18:09:06.343Z,53
2022-10-17T18:11:38.188Z,52
2022-10-17T18:14:09.509Z,54
2022-10-17T18:16:41.005Z,57
2022-10-17T18:19:13.685Z,51
2022-10-17T18:21:46.107Z,56
2022-10-17T18:24:18.222Z,52
2022-10-17T18:26:49.466Z,55
2022-10-17T18:29:20.621Z,49
2022-10-17T18:31:52.106Z,46
2022-10-17T18:34:23.658Z,51
2022-10-17T18:36:55.540Z,50
2022-10-17T18:39:27.406Z,49
2022-10-17T18:41:58.848Z,48
2022-10-17T18:44:29.867Z,45
2022-10-17T18:47:02.874Z,48
2022-10-17T18:49:32.388Z,52
2022-10-17T18:52:04.497Z,49
2022-10-17T18:54:36.823Z,46
2022-10-17T18:57:08.040Z,49
2022-10-17T18:59:39.641Z,51
2022-10-17T19:02:15.688Z,48
2022-10-17T19:04:50.579Z,48
2022-10-17T19:07:19.359Z,49
2022-10-17T19:09:50.035Z,52
2022-10-17T19:12:21.404Z,58
2022-10-17T19:14:52.611Z,45
2022-10-17T19:17:28.890Z,49
2022-10-17T19:19:59.807Z,47
2022-10-17T19:22:30.808Z,45
2022-10-17T19:25:01.801Z,53
2022-10-17T19:27:33.153Z,49
2022-10-17T19:30:04.471Z,52
2022-10-17T19:32:35.621Z,52
2022-10-17T19:35:08.973Z,50
2022-10-17T19:37:40.421Z,48
2022-10-17T19:40:11.562Z,48
2022-10-17T19:42:44.221Z,56
2022-10-17T19:45:21.816Z,58
2022-10-17T19:47:52.948Z,53
2022-10-17T19:50:23.702Z,52
2022-10-17T19:52:55.152Z,48
2022-10-17T19:55:26.132Z,49
2022-10-17T19:57:57.331Z,52
2022-10-17T20:00:29.570Z,47
2022-10-17T20:03:01.946Z,52
2022-10-17T20:05:33.322Z,57
2022-10-17T20:08:07.213Z,49
2022-10-17T20:10:39.262Z,51
2022-10-17T20:13:10.098Z,48
2022-10-17T20:15:41.540Z,49
2022-10-17T20:18:13.451Z,54
2022-10-17T20:20:46.040Z,51
2022-10-17T20:23:17.191Z,48
2022-10-17T20:25:56.816Z,52
2022-10-17T20:28:20.382Z,52
2022-10-17T20:30:52.749Z,56
2022-10-17T20:33:22.565Z,54
2022-10-17T20:35:54.813Z,52
2022-10-17T20:38:26.616Z,57
2022-10-17T20:40:59.650Z,52
2022-10-17T20:43:31.000Z,52
2022-10-17T20:46:09.927Z,53
2022-10-17T20:48:34.075Z,56
2022-10-17T20:51:06.700Z,49
2022-10-17T20:53:38.987Z,57
2022-10-17T20:56:12.511Z,60
2022-10-17T20:58:44.400Z,60
2022-10-17T21:01:16.400Z,69
2022-10-17T21:03:46.902Z,60
2022-10-17T21:06:17.630Z,61
2022-10-17T21:08:47.188Z,64
2022-10-17T21:11:18.306Z,60
2022-10-17T21:13:49.597Z,49
2022-10-17T21:16:21.054Z,50
2022-10-17T21:18:52.560Z,57
2022-10-17T21:21:24.194Z,52
2022-10-17T21:23:55.182Z,55
2022-10-17T21:26:26.938Z,55
2022-10-17T21:28:58.335Z,54
2022-10-17T21:31:36.060Z,46
2022-10-17T21:34:07.334Z,53
2022-10-17T21:36:40.660Z,59
2022-10-17T21:39:13.119Z,61
2022-10-17T21:41:47.682Z,53
2022-10-17T21:44:18.855Z,57
2022-10-17T21:46:52.136Z,56
2022-10-17T21:49:25.408Z,57
2022-10-17T21:51:56.654Z,58
2022-10-17T21:54:27.432Z,53
2022-10-17T21:56:58.793Z,53
2022-10-17T21:59:32.164Z,56
2022-10-17T22:02:03.327Z,59
2022-10-17T22:04:33.542Z,50
2022-10-17T22:07:06.177Z,53
2022-10-17T22:09:37.306Z,51
2022-10-17T22:12:08.172Z,48
2022-10-17T22:14:39.596Z,49
2022-10-17T22:17:10.212Z,48
2022-10-17T22:19:40.980Z,48
2022-10-17T22:22:10.600Z,49
2022-10-17T22:24:42.650Z,48
2022-10-17T22:27:15.612Z,52
2022-10-17T22:29:47.694Z,44
2022-10-17T22:32:19.949Z,39
2022-10-17T22:34:48.395Z,44
2022-10-17T22:37:19.666Z,40
2022-10-17T22:39:51.786Z,45
2022-10-17T22:45:01.731Z,41
2022-10-17T22:47:34.026Z,47
2022-10-17T22:50:05.210Z,47
2022-10-17T22:55:16.674Z,52
2022-10-17T22:57:47.951Z,50
2022-10-17T23:00:18.957Z,43
2022-10-17T23:02:49.839Z,43
2022-10-17T23:05:20.466Z,48
2022-10-17T23:07:53.350Z,40
2022-10-17T23:10:25.690Z,47
2022-10-17T23:12:57.060Z,43
2022-10-17T23:15:28.252Z,44
2022-10-17T23:17:59.540Z,40
2022-10-17T23:20:30.766Z,41
2022-10-17T23:23:03.019Z,43
2022-10-17T23:25:34.219Z,46
2022-10-17T23:28:06.018Z,48
2022-10-17T23:30:37.484Z,42
2022-10-17T23:33:08.352Z,45
2022-10-17T23:35:37.464Z,52
2022-10-17T23:38:08.557Z,44
2022-10-17T23:40:39.718Z,42
2022-10-17T23:43:08.690Z,44
2022-10-17T23:45:38.058Z,47
2022-10-17T23:48:09.554Z,42
2022-10-17T23:50:40.382Z,48
2022-10-17T23:53:11.087Z,51
2022-10-17T23:55:44.679Z,44
2022-10-17T23:58:15.419Z,44
